Time;durP1;ratioP1;P1;durP2;ratioP2;P2;SDS_P1;SDS_P2;PMS_P1;PMS_P2;Temp;Humidity;BMP_temperature;BMP_pressure;BME280_temperature;BME280_humidity;BME280_pressure;Samples;Min_cycle;Max_cycle;Signal;HPM_P1;HPM_P2
2022/03/31 00:00:49;;;;;;;;;;;;;;;12.51;68.93;99001.53;5066306;28;20372;-85
2022/03/31 00:03:34;;;;;;;;;;;;;;;12.48;69.44;98997.63;5077907;28;19916;-87
2022/03/31 00:06:18;;;;;;;;;;;;;;;12.55;69.23;98991.44;5067913;28;19912;-88
2022/03/31 00:09:02;;;;;;;;;;;;;;;12.55;69.63;98991.44;5075097;28;19912;-87
2022/03/31 00:11:47;;;;;;;;;;;;;;;12.55;69.39;98988.72;5064788;28;19913;-83
2022/03/31 00:14:31;;;;;;;;;;;;;;;12.55;69.78;98986.00;5065140;28;19913;-83
2022/03/31 00:17:16;;;;;;;;;;;;;;;12.43;70.35;98987.81;5061509;28;19912;-83
2022/03/31 00:20:03;;;;;;;;;;;;;;;12.46;70.36;98988.22;5075845;28;19912;-88
2022/03/31 00:22:48;;;;;;;;;;;;;;;12.30;71.20;98978.28;5064051;28;19912;-85
2022/03/31 00:25:33;;;;;;;;;;;;;;;12.27;71.70;98980.97;5067663;28;19916;-84
2022/03/31 00:28:17;;;;;;;;;;;;;;;12.28;71.99;98986.06;5067413;28;19908;-82
2022/03/31 00:31:02;;;;;;;;;;;;;;;12.19;72.62;98990.22;5075197;28;19912;-84
2022/03/31 00:33:46;;;;;;;;;;;;;;;12.15;72.65;98978.47;5060679;28;19912;-84
2022/03/31 00:36:31;;;;;;;;;;;;;;;12.27;73.10;98972.78;5064553;28;19912;-84
2022/03/31 00:39:29;;;;;;;;;;;;;;;12.24;73.31;98968.84;5066497;28;20380;-84
2022/03/31 00:42:15;;;;;;;;;;;;;;;12.35;73.35;98972.50;5074773;28;20377;-84
2022/03/31 00:45:00;;;;;;;;;;;;;;;12.27;73.09;98970.06;5063982;28;19916;-84
2022/03/31 00:47:45;;;;;;;;;;;;;;;12.31;73.25;98962.72;5076231;28;19912;-86
2022/03/31 00:50:31;;;;;;;;;;;;;;;12.21;73.33;98957.91;5074904;28;19912;-86
2022/03/31 00:53:16;;;;;;;;;;;;;;;12.21;73.86;98952.47;5063146;28;19912;-86
2022/03/31 00:56:01;;;;;;;;;;;;;;;12.32;73.08;98950.66;5074788;28;19912;-83
2022/03/31 00:58:47;;;;;;;;;;;;;;;12.27;73.04;98948.28;5060280;28;19912;-83
2022/03/31 01:01:32;;;;;;;;;;;;;;;12.18;73.92;98939.59;5078307;28;19912;-83
2022/03/31 01:04:17;;;;;;;;;;;;;;;12.38;73.05;98941.03;5059876;28;19916;-84
2022/03/31 01:07:05;;;;;;;;;;;;;;;12.42;72.97;98945.34;5060790;28;20305;-84
2022/03/31 01:09:59;;;;;;;;;;;;;;;12.22;74.23;98940.41;5063105;28;19912;-84
2022/03/31 01:12:43;;;;;;;;;;;;;;;12.04;74.35;98923.06;5074564;28;19916;-85
2022/03/31 01:15:28;;;;;;;;;;;;;;;11.90;75.08;98923.63;5059788;28;19912;-84
2022/03/31 01:18:13;;;;;;;;;;;;;;;11.94;76.13;98922.53;5064258;28;19916;-82
2022/03/31 01:20:57;;;;;;;;;;;;;;;11.90;75.87;98918.97;5076805;28;19912;-83
2022/03/31 01:23:43;;;;;;;;;;;;;;;11.76;76.33;98910.59;5073926;28;19916;-82
2022/03/31 01:26:27;;;;;;;;;;;;;;;11.73;76.47;98908.63;5065880;28;19912;-84
2022/03/31 01:29:12;;;;;;;;;;;;;;;11.85;75.76;98904.88;5061928;28;20389;-85
2022/03/31 01:31:57;;;;;;;;;;;;;;;11.92;76.50;98900.31;5065719;28;19912;-83
2022/03/31 01:34:42;;;;;;;;;;;;;;;11.88;75.92;98895.97;5073935;28;20373;-83
2022/03/31 01:37:26;;;;;;;;;;;;;;;12.01;74.98;98894.59;5074109;28;19912;-83
2022/03/31 01:40:12;;;;;;;;;;;;;;;11.92;75.04;98883.97;5060007;28;19912;-83
2022/03/31 01:42:57;;;;;;;;;;;;;;;12.14;74.16;98881.53;5073794;28;19912;-84
2022/03/31 01:45:41;;;;;;;;;;;;;;;11.94;74.83;98876.22;5062097;28;20532;-83
2022/03/31 01:48:26;;;;;;;;;;;;;;;11.95;74.67;98874.28;5065723;28;19934;-85
2022/03/31 01:51:10;;;;;;;;;;;;;;;12.03;74.83;98867.00;5073752;28;20281;-85
2022/03/31 01:53:54;;;;;;;;;;;;;;;12.17;73.97;98861.72;5074410;28;19912;-86
2022/03/31 01:56:42;;;;;;;;;;;;;;;12.27;73.73;98861.06;5065609;28;19912;-87
2022/03/31 01:59:41;;;;;;;;;;;;;;;11.97;74.68;98855.63;5065200;28;19912;-86
2022/03/31 02:02:26;;;;;;;;;;;;;;;11.97;74.78;98850.19;5073433;28;20388;-85
2022/03/31 02:05:11;;;;;;;;;;;;;;;12.09;74.46;98843.72;5065270;28;19916;-83
2022/03/31 02:07:56;;;;;;;;;;;;;;;11.99;74.36;98845.13;5073572;28;19946;-85
2022/03/31 02:10:41;;;;;;;;;;;;;;;11.94;74.42;98842.75;5064891;28;19912;-84
2022/03/31 02:13:25;;;;;;;;;;;;;;;11.92;74.10;98831.44;5061192;28;19912;-85
2022/03/31 02:16:10;;;;;;;;;;;;;;;11.84;74.39;98830.56;5073469;28;19912;-86
2022/03/31 02:18:54;;;;;;;;;;;;;;;11.67;75.36;98817.47;5064875;28;20380;-85
2022/03/31 02:21:39;;;;;;;;;;;;;;;11.94;74.63;98816.28;5073505;28;19912;-85
2022/03/31 02:24:23;;;;;;;;;;;;;;;11.88;74.88;98812.34;5057757;28;20288;-83
2022/03/31 02:27:08;;;;;;;;;;;;;;;11.78;75.22;98815.72;5076305;28;20373;-83
2022/03/31 02:29:52;;;;;;;;;;;;;;;11.89;74.83;98816.63;5060116;28;19912;-85
2022/03/31 02:32:37;;;;;;;;;;;;;;;11.88;75.02;98806.91;5073306;28;19912;-89
2022/03/31 02:35:23;;;;;;;;;;;;;;;11.89;74.84;98808.44;5065328;28;19912;-88
2022/03/31 02:38:07;;;;;;;;;;;;;;;11.69;75.74;98793.38;5078902;28;19912;-86
2022/03/31 02:40:52;;;;;;;;;;;;;;;11.73;75.66;98796.97;5058296;28;19912;-85
2022/03/31 02:43:37;;;;;;;;;;;;;;;11.80;75.60;98782.66;5060289;28;20300;-87
2022/03/31 02:46:21;;;;;;;;;;;;;;;11.71;75.35;98777.47;5064695;28;19913;-88
2022/03/31 02:49:06;;;;;;;;;;;;;;;11.58;75.88;98776.91;5072789;28;19912;-86
2022/03/31 02:51:50;;;;;;;;;;;;;;;11.41;76.86;98755.69;5072903;28;19912;-80
2022/03/31 02:57:38;;;;;;;;;;;;;;;11.04;78.46;98747.38;5057733;28;19913;-77
2022/03/31 03:00:23;;;;;;;;;;;;;;;11.13;79.25;98747.91;5072196;28;19916;-78
2022/03/31 03:03:10;;;;;;;;;;;;;;;11.27;78.72;98741.09;5059838;28;19913;-76
2022/03/31 03:05:54;;;;;;;;;;;;;;;11.20;78.92;98736.34;5058323;28;19916;-79
2022/03/31 03:08:39;;;;;;;;;;;;;;;11.45;78.03;98740.19;5062265;28;19912;-77
2022/03/31 03:11:24;;;;;;;;;;;;;;;11.34;78.36;98728.38;5074005;28;19916;-77
2022/03/31 03:14:12;;;;;;;;;;;;;;;11.19;79.08;98732.06;5057598;28;19912;-77
2022/03/31 03:16:56;;;;;;;;;;;;;;;11.03;79.14;98715.88;5072156;28;19913;-77
2022/03/31 03:19:41;;;;;;;;;;;;;;;11.10;79.50;98724.16;5059292;28;19912;-78
2022/03/31 03:22:26;;;;;;;;;;;;;;;11.04;80.05;98725.63;5072045;28;20381;-77
2022/03/31 03:25:11;;;;;;;;;;;;;;;11.08;79.48;98726.44;5077671;28;19913;-77
2022/03/31 03:27:55;;;;;;;;;;;;;;;11.11;79.02;98724.94;5060022;28;19912;-78
2022/03/31 03:30:40;;;;;;;;;;;;;;;11.16;79.20;98711.03;5071624;28;19912;-77
2022/03/31 03:33:25;;;;;;;;;;;;;;;11.34;78.27;98711.25;5072655;28;20308;-77
2022/03/31 03:36:12;;;;;;;;;;;;;;;11.13;78.72;98701.66;5075813;28;19916;-78
2022/03/31 03:38:57;;;;;;;;;;;;;;;10.88;79.48;98700.53;5059613;28;19916;-78
2022/03/31 03:41:42;;;;;;;;;;;;;;;10.90;80.42;98703.66;5076090;28;19912;-78
2022/03/31 03:44:26;;;;;;;;;;;;;;;11.16;79.62;98700.16;5075754;28;19916;-78
2022/03/31 03:47:11;;;;;;;;;;;;;;;11.23;78.71;98705.66;5060244;28;20404;-78
2022/03/31 03:49:55;;;;;;;;;;;;;;;11.41;77.89;98700.47;5060897;28;20307;-79
2022/03/31 03:52:40;;;;;;;;;;;;;;;11.56;77.41;98699.50;5065600;28;19913;-77
2022/03/31 03:55:24;;;;;;;;;;;;;;;11.67;77.00;98700.41;5063736;28;19916;-78
2022/03/31 03:58:08;;;;;;;;;;;;;;;11.60;77.11;98689.41;5061045;28;20296;-77
2022/03/31 04:00:53;;;;;;;;;;;;;;;11.54;77.47;98696.34;5064948;28;20384;-79
2022/03/31 04:03:38;;;;;;;;;;;;;;;11.61;76.88;98699.16;5062563;28;19912;-77
2022/03/31 04:06:22;;;;;;;;;;;;;;;11.61;77.20;98693.72;5060211;28;20389;-78
2022/03/31 04:09:07;;;;;;;;;;;;;;;11.64;77.05;98695.69;5072145;28;19912;-78
2022/03/31 04:11:51;;;;;;;;;;;;;;;11.62;77.26;98694.50;5075486;28;20373;-78
2022/03/31 04:14:35;;;;;;;;;;;;;;;11.61;77.33;98687.50;5061181;28;19912;-78
2022/03/31 04:17:20;;;;;;;;;;;;;;;11.59;77.36;98690.56;5066965;28;19912;-80
2022/03/31 04:20:04;;;;;;;;;;;;;;;11.56;77.42;98685.88;5063069;28;19916;-77
2022/03/31 04:22:49;;;;;;;;;;;;;;;11.54;77.40;98678.06;5085642;28;19920;-77
2022/03/31 04:25:33;;;;;;;;;;;;;;;11.58;77.38;98686.28;5081060;22;19921;-88
2022/03/31 04:28:18;;;;;;;;;;;;;;;11.55;77.63;98685.09;5055036;28;19920;-88
2022/03/31 04:31:02;;;;;;;;;;;;;;;11.44;78.55;98680.66;5083936;28;19913;-88
2022/03/31 04:33:47;;;;;;;;;;;;;;;11.33;78.61;98672.38;5077873;28;19913;-89
2022/03/31 04:36:31;;;;;;;;;;;;;;;11.39;78.49;98676.34;5101289;28;20304;-88
2022/03/31 04:39:16;;;;;;;;;;;;;;;11.55;77.42;98673.41;5095859;28;19908;-88
2022/03/31 04:42:02;;;;;;;;;;;;;;;11.53;77.45;98681.16;5096213;28;19912;-89
2022/03/31 04:44:48;;;;;;;;;;;;;;;11.47;77.90;98677.22;5103217;28;19916;-88
2022/03/31 04:47:32;;;;;;;;;;;;;;;11.58;77.46;98673.44;5087931;28;19912;-89
2022/03/31 04:50:16;;;;;;;;;;;;;;;11.59;77.40;98658.69;5103968;28;19912;-88
2022/03/31 04:53:01;;;;;;;;;;;;;;;11.54;77.49;98661.75;5103901;28;19915;-89
2022/03/31 04:55:45;;;;;;;;;;;;;;;11.48;77.86;98652.34;5064630;28;19912;-88
2022/03/31 04:58:30;;;;;;;;;;;;;;;11.43;78.38;98663.56;5068297;28;19913;-88
2022/03/31 05:01:16;;;;;;;;;;;;;;;11.37;78.36;98653.38;5082401;28;19912;-88
2022/03/31 05:04:01;;;;;;;;;;;;;;;11.35;78.84;98659.19;5082367;28;19912;-89
2022/03/31 05:06:46;;;;;;;;;;;;;;;11.40;78.59;98660.81;5083250;28;19912;-88
2022/03/31 05:09:30;;;;;;;;;;;;;;;11.34;78.61;98660.34;5068763;28;19912;-88
2022/03/31 05:12:15;;;;;;;;;;;;;;;11.16;79.86;98659.34;5072112;28;20368;-88
2022/03/31 05:15:02;;;;;;;;;;;;;;;11.21;79.57;98653.59;5070253;28;19916;-88
2022/03/31 05:17:47;;;;;;;;;;;;;;;11.34;78.99;98651.41;5078905;28;20289;-89
2022/03/31 05:20:31;;;;;;;;;;;;;;;11.34;78.97;98657.63;5081914;28;20365;-90
2022/03/31 05:23:16;;;;;;;;;;;;;;;11.36;78.61;98649.88;5064421;28;19912;-89
2022/03/31 05:26:00;;;;;;;;;;;;;;;11.46;79.15;98654.66;5067745;28;20215;-87
2022/03/31 05:28:45;;;;;;;;;;;;;;;11.22;80.06;98647.00;5076021;28;19916;-87
2022/03/31 05:31:30;;;;;;;;;;;;;;;11.38;78.80;98652.22;5087235;28;19916;-86
2022/03/31 05:34:15;;;;;;;;;;;;;;;11.93;76.02;98634.97;5088026;28;19912;-88
2022/03/31 05:36:59;;;;;;;;;;;;;;;12.38;74.27;98638.47;5069164;28;19916;-86
2022/03/31 05:39:43;;;;;;;;;;;;;;;11.78;76.82;98638.72;5074669;28;19920;-86
2022/03/31 05:42:28;;;;;;;;;;;;;;;11.95;76.84;98643.53;5086063;28;19912;-85
2022/03/31 05:45:14;;;;;;;;;;;;;;;11.97;76.49;98643.97;5070611;28;19917;-86
2022/03/31 05:47:59;;;;;;;;;;;;;;;12.44;74.56;98645.13;5066991;28;20392;-86
2022/03/31 05:50:44;;;;;;;;;;;;;;;12.94;71.31;98648.97;5072372;28;19912;-87
2022/03/31 05:53:29;;;;;;;;;;;;;;;13.19;70.17;98649.91;5084813;28;19916;-87
2022/03/31 05:56:13;;;;;;;;;;;;;;;13.21;69.31;98641.31;5074632;28;19912;-87
2022/03/31 05:58:58;;;;;;;;;;;;;;;12.94;70.53;98642.75;5069985;28;19912;-83
2022/03/31 06:01:42;;;;;;;;;;;;;;;13.59;68.14;98639.91;5077458;28;19912;-83
2022/03/31 06:04:27;;;;;;;;;;;;;;;13.29;69.05;98634.75;5076712;28;20288;-83
2022/03/31 06:07:12;;;;;;;;;;;;;;;13.14;69.69;98631.19;5079232;28;19916;-83
2022/03/31 06:09:57;;;;;;;;;;;;;;;12.74;71.43;98634.84;5060786;28;20312;-82
2022/03/31 06:12:42;;;;;;;;;;;;;;;12.79;71.54;98629.03;5068066;28;19913;-83
2022/03/31 06:15:27;;;;;;;;;;;;;;;13.04;70.65;98633.81;5078402;28;19916;-83
2022/03/31 06:18:12;;;;;;;;;;;;;;;13.29;69.75;98634.75;5080050;28;19916;-84
2022/03/31 06:20:57;;;;;;;;;;;;;;;13.07;70.83;98641.25;5070035;28;20380;-84
2022/03/31 06:23:42;;;;;;;;;;;;;;;13.14;70.98;98635.84;5077826;28;19912;-83
2022/03/31 06:26:27;;;;;;;;;;;;;;;12.64;71.86;98630.09;5080599;28;19916;-85
2022/03/31 06:29:13;;;;;;;;;;;;;;;12.40;72.69;98623.28;5086127;28;20308;-86
2022/03/31 06:31:57;;;;;;;;;;;;;;;12.35;72.93;98622.84;5067182;28;19912;-86
2022/03/31 06:34:42;;;;;;;;;;;;;;;12.23;73.59;98620.44;5078003;28;19913;-85
2022/03/31 06:37:27;;;;;;;;;;;;;;;12.14;74.33;98609.09;5078847;28;19916;-86
2022/03/31 06:40:13;;;;;;;;;;;;;;;11.86;75.98;98617.78;5077973;28;19912;-86
2022/03/31 06:42:58;;;;;;;;;;;;;;;12.11;74.44;98610.59;5065396;28;19913;-86
2022/03/31 06:45:42;;;;;;;;;;;;;;;12.06;74.66;98610.94;5080841;28;19916;-85
2022/03/31 06:48:26;;;;;;;;;;;;;;;12.25;73.94;98613.44;5080527;28;19912;-86
2022/03/31 06:51:13;;;;;;;;;;;;;;;12.18;74.35;98613.41;5077921;28;19912;-86
2022/03/31 06:54:02;;;;;;;;;;;;;;;12.24;74.38;98613.84;5078676;28;19913;-86
2022/03/31 06:56:49;;;;;;;;;;;;;;;11.87;76.29;98611.97;5067298;28;19912;-86
2022/03/31 06:59:33;;;;;;;;;;;;;;;12.63;72.87;98603.97;5078310;28;20369;-85
2022/03/31 07:02:18;;;;;;;;;;;;;;;12.82;72.25;98602.91;5063939;28;19912;-88
2022/03/31 07:05:03;;;;;;;;;;;;;;;12.60;72.45;98596.53;5074723;28;19916;-87
2022/03/31 07:07:47;;;;;;;;;;;;;;;13.00;71.74;98594.84;5081577;28;19912;-87
2022/03/31 07:10:32;;;;;;;;;;;;;;;13.40;69.98;98591.13;5063701;28;19912;-86
2022/03/31 07:13:17;;;;;;;;;;;;;;;13.45;69.29;98594.25;5057723;28;20305;-86
2022/03/31 07:16:03;;;;;;;;;;;;;;;13.10;71.18;98602.28;5051179;28;19912;-87
2022/03/31 07:18:48;;;;;;;;;;;;;;;12.71;72.94;98591.94;5080524;28;20406;-87
2022/03/31 07:21:32;;;;;;;;;;;;;;;13.03;71.69;98594.06;5088760;28;20375;-86
2022/03/31 07:24:17;;;;;;;;;;;;;;;12.97;71.23;98592.84;5098541;28;20360;-87
2022/03/31 07:27:02;;;;;;;;;;;;;;;13.41;69.70;98589.97;5061994;28;19916;-87
2022/03/31 07:29:47;;;;;;;;;;;;;;;13.71;68.04;98591.16;5088436;28;19912;-87
2022/03/31 07:32:32;;;;;;;;;;;;;;;13.81;68.19;98592.38;5094643;28;20384;-87
2022/03/31 07:35:18;;;;;;;;;;;;;;;13.78;68.25;98586.88;5058951;28;19912;-88
2022/03/31 07:38:03;;;;;;;;;;;;;;;13.62;68.59;98589.97;5062873;28;19913;-87
2022/03/31 07:40:49;;;;;;;;;;;;;;;13.82;67.75;98584.94;5061110;28;19917;-89
2022/03/31 07:43:34;;;;;;;;;;;;;;;13.76;67.91;98584.56;5061471;28;19912;-90
2022/03/31 07:46:18;;;;;;;;;;;;;;;13.59;68.49;98580.63;5065554;28;19920;-90
2022/03/31 07:49:03;;;;;;;;;;;;;;;13.46;69.45;98584.88;5082015;28;19911;-90
2022/03/31 07:51:47;;;;;;;;;;;;;;;13.74;68.69;98586.09;5071545;28;19912;-90
2022/03/31 07:54:32;;;;;;;;;;;;;;;14.06;66.48;98587.72;5080449;28;19912;-87
2022/03/31 07:57:16;;;;;;;;;;;;;;;13.88;68.41;98583.38;5086416;28;19912;-87
2022/03/31 08:00:00;;;;;;;;;;;;;;;14.71;65.76;98583.75;5078642;28;19912;-87
2022/03/31 08:02:46;;;;;;;;;;;;;;;15.45;62.73;98585.41;5062461;28;19913;-88
2022/03/31 08:05:35;;;;;;;;;;;;;;;16.14;60.16;98576.38;5062794;28;19916;-87
2022/03/31 08:08:19;;;;;;;;;;;;;;;16.64;57.78;98580.25;5063950;28;19916;-87
2022/03/31 08:11:04;;;;;;;;;;;;;;;17.09;57.53;98571.91;5062297;28;19912;-88
2022/03/31 08:13:48;;;;;;;;;;;;;;;17.24;56.14;98578.00;5065081;28;19912;-89
2022/03/31 08:16:33;;;;;;;;;;;;;;;17.48;55.08;98576.88;5074618;28;19913;-89
2022/03/31 08:19:18;;;;;;;;;;;;;;;17.02;57.05;98566.50;5073356;28;19916;-89
2022/03/31 08:22:03;;;;;;;;;;;;;;;17.37;55.41;98573.53;5081181;28;20296;-89
2022/03/31 08:24:48;;;;;;;;;;;;;;;17.05;56.65;98569.22;5072148;28;19913;-89
2022/03/31 08:27:35;;;;;;;;;;;;;;;18.18;52.46;98571.56;5082893;28;19912;-89
2022/03/31 08:30:21;;;;;;;;;;;;;;;17.94;53.90;98568.00;5073945;28;20157;-89
2022/03/31 08:33:06;;;;;;;;;;;;;;;18.03;53.35;98571.00;5084781;28;19912;-89
2022/03/31 08:35:50;;;;;;;;;;;;;;;18.36;52.20;98570.06;5080717;28;19912;-89
2022/03/31 08:38:35;;;;;;;;;;;;;;;18.62;50.75;98567.66;5076241;28;19916;-89
2022/03/31 08:41:22;;;;;;;;;;;;;;;19.27;49.48;98565.22;5081288;28;19916;-89
2022/03/31 08:44:07;;;;;;;;;;;;;;;20.22;47.25;98565.78;5075267;28;19912;-88
2022/03/31 08:46:52;;;;;;;;;;;;;;;21.39;43.87;98564.63;5060045;28;19917;-88
2022/03/31 08:49:39;;;;;;;;;;;;;;;21.63;41.50;98560.38;5060135;28;19912;-89
2022/03/31 08:52:24;;;;;;;;;;;;;;;22.47;40.02;98559.63;5060020;28;19912;-88
2022/03/31 08:55:09;;;;;;;;;;;;;;;22.94;39.25;98562.34;5069452;28;20388;-88
2022/03/31 08:57:54;;;;;;;;;;;;;;;23.34;37.19;98558.91;5070112;28;20288;-88
2022/03/31 09:00:41;;;;;;;;;;;;;;;24.05;35.12;98558.94;5073903;28;19916;-88
2022/03/31 09:03:33;;;;;;;;;;;;;;;24.27;34.23;98562.41;5073341;28;19916;-88
2022/03/31 09:06:23;;;;;;;;;;;;;;;25.44;32.10;98560.09;5073316;28;19916;-88
2022/03/31 09:09:10;;;;;;;;;;;;;;;25.34;32.02;98559.34;5073303;28;19912;-88
2022/03/31 09:11:55;;;;;;;;;;;;;;;26.15;30.20;98557.47;5082560;28;19912;-88
2022/03/31 09:14:39;;;;;;;;;;;;;;;25.07;32.06;98549.03;5081945;28;20404;-88
2022/03/31 09:17:27;;;;;;;;;;;;;;;24.88;30.55;98547.50;5082860;28;19912;-89
2022/03/31 09:20:12;;;;;;;;;;;;;;;26.18;31.44;98550.19;5074979;28;19916;-87
2022/03/31 09:22:56;;;;;;;;;;;;;;;27.80;28.53;98549.22;5068923;28;19912;-87
2022/03/31 09:25:41;;;;;;;;;;;;;;;29.76;24.60;98545.41;5080216;28;19916;-85
2022/03/31 09:28:25;;;;;;;;;;;;;;;30.45;24.27;98548.13;5072881;28;19912;-88
2022/03/31 09:31:11;;;;;;;;;;;;;;;28.96;25.28;98540.84;5076810;28;19912;-88
2022/03/31 09:33:56;;;;;;;;;;;;;;;27.49;27.02;98534.97;5061562;28;19912;-88
2022/03/31 09:36:51;;;;;;;;;;;;;;;24.98;30.29;98531.59;5071269;28;19913;-87
2022/03/31 09:39:37;;;;;;;;;;;;;;;22.59;34.54;98530.34;5064241;28;19912;-87
2022/03/31 09:42:21;;;;;;;;;;;;;;;21.25;37.49;98519.63;5070225;28;20296;-88
2022/03/31 09:45:08;;;;;;;;;;;;;;;21.09;37.43;98519.66;5065594;28;20381;-89
2022/03/31 09:47:52;;;;;;;;;;;;;;;21.02;37.97;98514.38;5077220;28;19912;-88
2022/03/31 09:50:38;;;;;;;;;;;;;;;19.60;40.09;98520.78;5089794;28;19916;-88
2022/03/31 09:53:27;;;;;;;;;;;;;;;19.00;40.88;98511.03;5088919;28;19912;-89
2022/03/31 09:56:11;;;;;;;;;;;;;;;18.49;43.82;98517.91;5064468;28;19912;-88
2022/03/31 09:58:59;;;;;;;;;;;;;;;18.23;45.35;98511.34;5076014;28;19912;-88
2022/03/31 10:01:45;;;;;;;;;;;;;;;17.78;45.40;98499.13;5075973;28;19912;-88
2022/03/31 10:04:31;;;;;;;;;;;;;;;17.59;46.43;98505.28;5074422;28;19916;-88
2022/03/31 10:07:16;;;;;;;;;;;;;;;17.51;48.28;98499.13;5062258;28;19915;-88
2022/03/31 10:10:02;;;;;;;;;;;;;;;16.96;49.48;98505.00;5060903;28;20357;-88
2022/03/31 10:12:49;;;;;;;;;;;;;;;16.91;50.69;98498.00;5066123;28;19912;-89
2022/03/31 10:15:35;;;;;;;;;;;;;;;16.80;51.54;98496.56;5063422;28;19912;-90
2022/03/31 10:18:20;;;;;;;;;;;;;;;16.49;52.71;98490.22;5064991;28;19912;-90
2022/03/31 10:21:04;;;;;;;;;;;;;;;16.27;52.78;98487.72;5082604;28;19912;-89
2022/03/31 10:26:57;;;;;;;;;;;;;;;15.80;53.64;98483.06;5062340;28;19916;-89
2022/03/31 10:29:42;;;;;;;;;;;;;;;15.69;55.57;98485.13;5072864;28;19934;-89
2022/03/31 10:32:27;;;;;;;;;;;;;;;15.64;55.54;98480.84;5079431;28;19921;-89
2022/03/31 10:35:19;;;;;;;;;;;;;;;15.55;56.79;98475.03;5061228;28;19916;-89
2022/03/31 10:38:15;;;;;;;;;;;;;;;15.61;56.81;98472.63;5086506;28;19916;-89
2022/03/31 10:41:01;;;;;;;;;;;;;;;15.47;57.54;98473.50;5049157;28;19916;-88
2022/03/31 10:43:47;;;;;;;;;;;;;;;15.39;57.61;98467.28;5091012;23;20305;-70
2022/03/31 10:46:32;;;;;;;;;;;;;;;15.25;58.36;98467.38;5112798;28;20382;-70
2022/03/31 10:49:20;;;;;;;;;;;;;;;15.37;58.77;98460.66;5082857;28;19912;-70
2022/03/31 10:52:12;;;;;;;;;;;;;;;15.25;59.61;98456.44;5082952;28;20382;-70
2022/03/31 10:55:08;;;;;;;;;;;;;;;15.04;60.27;98469.47;5092562;28;19911;-70
2022/03/31 10:57:53;;;;;;;;;;;;;;;15.04;61.23;98461.25;5088250;28;20142;-71
2022/03/31 11:00:37;;;;;;;;;;;;;;;15.29;60.87;98459.13;5072095;28;19912;-70
2022/03/31 11:03:22;;;;;;;;;;;;;;;15.11;61.47;98456.53;5058705;28;19913;-70
2022/03/31 11:06:10;;;;;;;;;;;;;;;15.17;61.42;98454.16;5072179;28;19921;-70
2022/03/31 11:08:55;;;;;;;;;;;;;;;14.98;61.04;98449.97;5071801;28;19912;-70
2022/03/31 11:11:40;;;;;;;;;;;;;;;15.10;61.41;98452.22;5059083;28;19912;-70
2022/03/31 11:14:24;;;;;;;;;;;;;;;15.11;61.77;98448.31;5071934;28;20381;-70
2022/03/31 11:17:18;;;;;;;;;;;;;;;15.10;62.27;98448.72;5078610;28;19912;-70
2022/03/31 11:20:13;;;;;;;;;;;;;;;15.24;62.94;98441.19;5077577;28;19915;-70
2022/03/31 11:23:03;;;;;;;;;;;;;;;15.24;62.79;98441.19;5082363;28;19912;-70
2022/03/31 11:25:48;;;;;;;;;;;;;;;15.38;61.96;98438.38;5092111;28;19916;-70
2022/03/31 11:28:32;;;;;;;;;;;;;;;15.37;60.18;98428.59;5091753;28;19912;-70
2022/03/31 11:31:18;;;;;;;;;;;;;;;15.54;60.12;98434.38;5092143;28;19912;-70
2022/03/31 11:34:14;;;;;;;;;;;;;;;15.46;60.61;98432.81;5092150;28;19916;-70
2022/03/31 11:37:00;;;;;;;;;;;;;;;15.59;59.71;98433.94;5083421;28;20379;-70
2022/03/31 11:39:46;;;;;;;;;;;;;;;15.82;59.53;98436.84;5071830;28;19912;-70
2022/03/31 11:42:30;;;;;;;;;;;;;;;15.68;58.80;98431.50;5072111;28;20363;-67
2022/03/31 11:45:23;;;;;;;;;;;;;;;15.69;60.05;98427.59;5071912;28;19912;-69
2022/03/31 11:48:13;;;;;;;;;;;;;;;15.77;60.19;98429.06;5071823;28;20375;-69
2022/03/31 11:50:59;;;;;;;;;;;;;;;16.01;59.91;98428.03;5071760;28;19912;-70
2022/03/31 11:53:44;;;;;;;;;;;;;;;15.81;60.27;98424.31;5092118;28;19914;-68
2022/03/31 11:56:29;;;;;;;;;;;;;;;15.82;60.25;98429.41;5092244;28;19912;-68
2022/03/31 11:59:14;;;;;;;;;;;;;;;16.03;57.59;98422.16;5065477;28;19912;-68
2022/03/31 12:01:59;;;;;;;;;;;;;;;15.77;56.85;98423.56;5081663;28;19912;-69
2022/03/31 12:04:44;;;;;;;;;;;;;;;15.34;59.56;98417.63;5079962;28;20372;-68
2022/03/31 12:07:29;;;;;;;;;;;;;;;14.93;60.70;98425.75;5075393;28;20291;-67
2022/03/31 12:10:14;;;;;;;;;;;;;;;14.48;60.91;98422.84;5075164;28;19912;-68
2022/03/31 12:13:00;;;;;;;;;;;;;;;14.67;59.89;98418.09;5075264;28;19912;-68
2022/03/31 12:15:45;;;;;;;;;;;;;;;14.31;60.91;98423.66;5084515;28;19932;-69
2022/03/31 12:18:35;;;;;;;;;;;;;;;14.41;62.12;98424.81;5115210;28;19911;-70
2022/03/31 12:21:20;;;;;;;;;;;;;;;14.20;61.87;98425.66;5103914;28;19912;-68
2022/03/31 12:24:09;;;;;;;;;;;;;;;14.32;62.21;98432.66;5109001;28;19911;-68
2022/03/31 12:26:55;;;;;;;;;;;;;;;14.01;62.21;98423.38;5120711;28;19916;-70
2022/03/31 12:29:39;;;;;;;;;;;;;;;13.94;63.07;98426.09;5113383;27;19912;-70
2022/03/31 12:32:24;;;;;;;;;;;;;;;13.75;62.91;98413.66;5103626;28;19912;-68
2022/03/31 12:35:08;;;;;;;;;;;;;;;13.89;63.36;98423.75;5086602;28;19911;-70
2022/03/31 12:37:52;;;;;;;;;;;;;;;13.84;63.33;98419.47;5109368;28;19916;-71
2022/03/31 12:40:42;;;;;;;;;;;;;;;14.22;61.43;98415.09;5094635;28;19913;-70
2022/03/31 12:43:26;;;;;;;;;;;;;;;14.45;62.03;98412.69;5107708;28;20294;-70
2022/03/31 12:46:12;;;;;;;;;;;;;;;14.69;61.01;98411.00;5111578;28;19916;-71
2022/03/31 12:49:02;;;;;;;;;;;;;;;14.66;61.20;98406.34;5109906;28;19912;-71
2022/03/31 12:51:46;;;;;;;;;;;;;;;14.94;61.08;98400.72;5094130;28;19912;-72
2022/03/31 12:54:32;;;;;;;;;;;;;;;15.22;60.09;98397.00;5105147;28;19912;-72
2022/03/31 12:57:19;;;;;;;;;;;;;;;15.34;58.77;98396.50;5100743;28;20371;-71
2022/03/31 13:00:06;;;;;;;;;;;;;;;14.80;59.54;98398.06;5099275;28;20297;-72
2022/03/31 13:02:51;;;;;;;;;;;;;;;14.82;59.89;98392.19;5111850;28;19912;-72
2022/03/31 13:05:35;;;;;;;;;;;;;;;14.59;59.41;98400.13;5105728;28;19919;-71
2022/03/31 13:08:20;;;;;;;;;;;;;;;14.75;58.70;98389.50;5092418;28;20290;-72
2022/03/31 13:11:04;;;;;;;;;;;;;;;14.77;59.49;98392.63;5097638;28;19915;-71
2022/03/31 13:13:50;;;;;;;;;;;;;;;14.96;58.99;98386.63;5103162;28;20283;-71
2022/03/31 13:16:34;;;;;;;;;;;;;;;15.27;58.33;98377.41;5103813;28;19911;-71
2022/03/31 13:19:19;;;;;;;;;;;;;;;15.52;56.72;98379.19;5099447;28;19912;-72
2022/03/31 13:22:04;;;;;;;;;;;;;;;15.84;55.02;98379.69;5094206;28;19916;-72
2022/03/31 13:24:51;;;;;;;;;;;;;;;16.23;53.66;98380.03;5094313;28;19912;-72
2022/03/31 13:27:36;;;;;;;;;;;;;;;16.03;53.30;98376.34;5094089;28;19916;-72
2022/03/31 13:30:22;;;;;;;;;;;;;;;16.02;52.01;98374.78;5094333;28;19912;-72
2022/03/31 13:33:06;;;;;;;;;;;;;;;15.84;52.11;98368.72;5099224;28;19911;-72
2022/03/31 13:35:51;;;;;;;;;;;;;;;15.82;53.21;98371.06;5114089;28;19912;-72
2022/03/31 13:38:36;;;;;;;;;;;;;;;15.92;53.35;98370.19;5114282;28;20523;-72
2022/03/31 13:41:22;;;;;;;;;;;;;;;15.84;52.58;98368.72;5107468;28;19912;-72
2022/03/31 13:44:07;;;;;;;;;;;;;;;16.09;52.81;98373.91;5106003;28;19912;-72
2022/03/31 13:46:53;;;;;;;;;;;;;;;16.15;53.18;98367.56;5113858;28;19916;-72
2022/03/31 13:49:38;;;;;;;;;;;;;;;15.88;53.97;98363.97;5113580;28;19912;-72
2022/03/31 13:52:23;;;;;;;;;;;;;;;15.79;54.39;98355.44;5110571;28;19915;-72
2022/03/31 13:55:09;;;;;;;;;;;;;;;15.83;54.69;98361.66;5091583;28;19911;-72
2022/03/31 14:01:10;;;;;;;;;;;;;;;15.31;53.92;98355.47;5093157;28;19912;-70
2022/03/31 14:03:55;;;;;;;;;;;;;;;15.36;53.02;98355.03;5112857;28;19911;-70
2022/03/31 14:06:39;;;;;;;;;;;;;;;15.25;52.00;98344.16;5113640;28;19916;-70
2022/03/31 14:09:25;;;;;;;;;;;;;;;15.23;50.61;98346.56;5113507;28;19912;-70
2022/03/31 14:12:09;;;;;;;;;;;;;;;15.14;52.94;98337.22;5113671;28;19916;-70
2022/03/31 14:14:54;;;;;;;;;;;;;;;15.22;54.92;98330.53;5113592;28;20313;-70
2022/03/31 14:17:38;;;;;;;;;;;;;;;15.43;55.25;98335.03;5112587;28;19911;-71
2022/03/31 14:20:24;;;;;;;;;;;;;;;15.16;54.06;98329.41;5113568;28;19915;-71
2022/03/31 14:23:09;;;;;;;;;;;;;;;15.15;54.46;98322.34;5115201;28;20374;-70
2022/03/31 14:25:58;;;;;;;;;;;;;;;15.19;55.13;98320.38;5113363;28;19915;-70
2022/03/31 14:28:43;;;;;;;;;;;;;;;15.22;53.60;98323.09;5113400;28;19911;-72
2022/03/31 14:31:28;;;;;;;;;;;;;;;15.27;53.68;98314.44;5112719;28;19911;-70